Colerain, North Carolina
Current Conditions -  °F | °C
As of 3:35 AM on Friday 19 Dec 2014 (Local Time) from KEDE Reporting Station
NA  
Wind Chill: 33°   Ceiling: NA
Heat Index: 33°   Visibility: 10mi
Dew Point: 32°   Wind: 3mph
Humidity: 93%   Direction: 20°NNE
Pressure: 30.1"   Gusts: NA
Location:  36.2°N, 76.77°W
Report Text: KEDE 190835Z AUTO 02003KT 10SM 01/00 A3010 RMK AO2 T00081002
Loading
Personal Weather Stations






























Interactive Weather Map New forecast layout! Learn more

10-Day Weather Forecast

Advertisements
Track Severe Weather on mobile